sensor_id;sensor_type;location;lat;lon;timestamp;pressure;altitude;pressure_sealevel;temperature;humidity
32456;BME280;18912;43.270;27.942;2023-09-08T00:00:40;98538.94;;;24.67;48.34
32456;BME280;18912;43.270;27.942;2023-09-08T00:03:05;98546.47;;;24.61;48.43
32456;BME280;18912;43.270;27.942;2023-09-08T00:05:31;98547.00;;;24.58;48.64
32456;BME280;18912;43.270;27.942;2023-09-08T00:07:57;98537.13;;;24.52;48.80
32456;BME280;18912;43.270;27.942;2023-09-08T00:10:22;98538.81;;;24.43;48.68
32456;BME280;18912;43.270;27.942;2023-09-08T00:12:48;98534.78;;;24.31;48.85
32456;BME280;18912;43.270;27.942;2023-09-08T00:15:13;98533.94;;;24.30;48.76
32456;BME280;18912;43.270;27.942;2023-09-08T00:17:39;98527.59;;;24.30;48.87
32456;BME280;18912;43.270;27.942;2023-09-08T00:20:06;98538.63;;;24.30;48.85
32456;BME280;18912;43.270;27.942;2023-09-08T00:22:34;98526.78;;;24.24;48.82
32456;BME280;18912;43.270;27.942;2023-09-08T00:25:00;98526.25;;;24.27;48.69
32456;BME280;18912;43.270;27.942;2023-09-08T00:27:25;98522.63;;;24.27;48.65
32456;BME280;18912;43.270;27.942;2023-09-08T00:29:51;98528.75;;;24.24;48.33
32456;BME280;18912;43.270;27.942;2023-09-08T00:32:16;98525.75;;;24.15;48.41
32456;BME280;18912;43.270;27.942;2023-09-08T00:34:42;98524.09;;;24.14;48.80
32456;BME280;18912;43.270;27.942;2023-09-08T00:37:08;98519.69;;;24.13;48.65
32456;BME280;18912;43.270;27.942;2023-09-08T00:39:38;98536.84;;;24.05;49.19
32456;BME280;18912;43.270;27.942;2023-09-08T00:42:03;98522.19;;;23.99;49.00
32456;BME280;18912;43.270;27.942;2023-09-08T00:44:29;98531.06;;;24.01;49.12
32456;BME280;18912;43.270;27.942;2023-09-08T00:46:54;98521.47;;;23.84;49.06
32456;BME280;18912;43.270;27.942;2023-09-08T00:49:20;98515.69;;;23.75;49.53
32456;BME280;18912;43.270;27.942;2023-09-08T00:51:46;98528.66;;;23.80;49.59
32456;BME280;18912;43.270;27.942;2023-09-08T00:54:12;98530.63;;;23.69;49.81
32456;BME280;18912;43.270;27.942;2023-09-08T00:56:38;98530.66;;;23.59;49.81
32456;BME280;18912;43.270;27.942;2023-09-08T00:59:04;98535.06;;;23.60;49.81
32456;BME280;18912;43.270;27.942;2023-09-08T01:01:31;98526.31;;;23.38;50.06
32456;BME280;18912;43.270;27.942;2023-09-08T01:03:56;98536.19;;;23.44;49.91
32456;BME280;18912;43.270;27.942;2023-09-08T01:06:23;98534.03;;;23.36;50.08
32456;BME280;18912;43.270;27.942;2023-09-08T01:08:49;98537.06;;;23.19;50.47
32456;BME280;18912;43.270;27.942;2023-09-08T01:11:15;98537.34;;;23.08;50.61
32456;BME280;18912;43.270;27.942;2023-09-08T01:13:42;98530.19;;;22.97;50.90
32456;BME280;18912;43.270;27.942;2023-09-08T01:16:08;98531.84;;;22.98;50.98
32456;BME280;18912;43.270;27.942;2023-09-08T01:18:33;98531.59;;;22.94;51.05
32456;BME280;18912;43.270;27.942;2023-09-08T01:26:53;98528.81;;;22.69;51.54
32456;BME280;18912;43.270;27.942;2023-09-08T01:29:19;98526.88;;;22.55;51.75
32456;BME280;18912;43.270;27.942;2023-09-08T01:31:45;98529.06;;;22.53;51.92
32456;BME280;18912;43.270;27.942;2023-09-08T01:34:11;98521.06;;;22.51;52.28
32456;BME280;18912;43.270;27.942;2023-09-08T01:36:37;98520.78;;;22.43;52.26
32456;BME280;18912;43.270;27.942;2023-09-08T01:39:03;98526.28;;;22.43;52.54
32456;BME280;18912;43.270;27.942;2023-09-08T01:41:29;98530.69;;;22.44;52.17
32456;BME280;18912;43.270;27.942;2023-09-08T01:43:56;98520.22;;;22.41;51.87
32456;BME280;18912;43.270;27.942;2023-09-08T01:46:23;98527.66;;;22.35;52.05
32456;BME280;18912;43.270;27.942;2023-09-08T01:48:48;98522.69;;;22.32;52.42
32456;BME280;18912;43.270;27.942;2023-09-08T01:51:13;98518.56;;;22.40;52.44
32456;BME280;18912;43.270;27.942;2023-09-08T01:53:39;98526.53;;;22.31;52.85
32456;BME280;18912;43.270;27.942;2023-09-08T01:56:04;98516.06;;;22.23;53.10
32456;BME280;18912;43.270;27.942;2023-09-08T01:58:30;98518.00;;;22.27;53.00
32456;BME280;18912;43.270;27.942;2023-09-08T02:00:57;98510.28;;;22.24;53.16
32456;BME280;18912;43.270;27.942;2023-09-08T02:03:28;98513.56;;;22.11;53.14
32456;BME280;18912;43.270;27.942;2023-09-08T02:05:53;98522.66;;;22.12;52.92
32456;BME280;18912;43.270;27.942;2023-09-08T02:08:19;98519.38;;;22.20;52.77
32456;BME280;18912;43.270;27.942;2023-09-08T02:10:44;98517.41;;;22.15;52.80
32456;BME280;18912;43.270;27.942;2023-09-08T02:13:10;98518.25;;;22.21;52.55
32456;BME280;18912;43.270;27.942;2023-09-08T02:15:35;98516.63;;;22.25;52.61
32456;BME280;18912;43.270;27.942;2023-09-08T02:18:01;98514.69;;;22.20;52.81
32456;BME280;18912;43.270;27.942;2023-09-08T02:20:27;98514.69;;;22.20;53.02
32456;BME280;18912;43.270;27.942;2023-09-08T02:22:54;98511.94;;;22.25;52.76
32456;BME280;18912;43.270;27.942;2023-09-08T02:25:19;98515.22;;;22.22;53.21
32456;BME280;18912;43.270;27.942;2023-09-08T02:27:45;98515.50;;;22.11;53.56
32456;BME280;18912;43.270;27.942;2023-09-08T02:30:11;98508.31;;;22.10;53.34
32456;BME280;18912;43.270;27.942;2023-09-08T02:32:36;98510.56;;;22.13;53.25
32456;BME280;18912;43.270;27.942;2023-09-08T02:35:02;98514.66;;;22.10;53.09
32456;BME280;18912;43.270;27.942;2023-09-08T02:37:27;98514.09;;;22.03;53.52
32456;BME280;18912;43.270;27.942;2023-09-08T02:39:53;98501.97;;;21.99;53.52
32456;BME280;18912;43.270;27.942;2023-09-08T02:42:18;98508.03;;;22.06;53.28
32456;BME280;18912;43.270;27.942;2023-09-08T02:44:44;98504.22;;;22.12;53.13
32456;BME280;18912;43.270;27.942;2023-09-08T02:47:09;98501.44;;;22.07;53.18
32456;BME280;18912;43.270;27.942;2023-09-08T02:49:35;98500.34;;;22.08;52.95
32456;BME280;18912;43.270;27.942;2023-09-08T02:52:01;98494.56;;;22.05;53.18
32456;BME280;18912;43.270;27.942;2023-09-08T02:54:26;98502.53;;;22.06;53.44
32456;BME280;18912;43.270;27.942;2023-09-08T02:56:52;98496.47;;;21.99;53.40
32456;BME280;18912;43.270;27.942;2023-09-08T02:59:17;98510.22;;;21.99;53.70
32456;BME280;18912;43.270;27.942;2023-09-08T03:01:43;98506.66;;;21.94;53.70
32456;BME280;18912;43.270;27.942;2023-09-08T03:04:08;98496.44;;;21.84;53.84
32456;BME280;18912;43.270;27.942;2023-09-08T03:06:34;98507.16;;;21.86;53.83
32456;BME280;18912;43.270;27.942;2023-09-08T03:09:00;98503.56;;;21.85;53.71
32456;BME280;18912;43.270;27.942;2023-09-08T03:11:25;98506.00;;;21.77;53.93
32456;BME280;18912;43.270;27.942;2023-09-08T03:13:51;98497.97;;;21.70;54.30
32456;BME280;18912;43.270;27.942;2023-09-08T03:16:16;98504.63;;;21.79;53.88
32456;BME280;18912;43.270;27.942;2023-09-08T03:18:42;98489.44;;;21.72;54.12
32456;BME280;18912;43.270;27.942;2023-09-08T03:21:07;98497.69;;;21.62;54.33
32456;BME280;18912;43.270;27.942;2023-09-08T03:23:40;98501.78;;;21.59;54.63
32456;BME280;18912;43.270;27.942;2023-09-08T03:26:07;98498.44;;;21.47;54.92
32456;BME280;18912;43.270;27.942;2023-09-08T03:28:33;98507.53;;;21.53;54.88
32456;BME280;18912;43.270;27.942;2023-09-08T03:30:59;98504.47;;;21.44;55.16
32456;BME280;18912;43.270;27.942;2023-09-08T03:33:24;98503.63;;;21.44;55.23
32456;BME280;18912;43.270;27.942;2023-09-08T03:35:50;98503.03;;;20.95;56.56
32456;BME280;18912;43.270;27.942;2023-09-08T03:38:15;98500.38;;;21.05;56.41
32456;BME280;18912;43.270;27.942;2023-09-08T03:40:41;98494.25;;;20.98;56.44
32456;BME280;18912;43.270;27.942;2023-09-08T03:43:06;98504.59;;;20.81;57.31
32456;BME280;18912;43.270;27.942;2023-09-08T03:45:32;98512.41;;;20.62;57.99
32456;BME280;18912;43.270;27.942;2023-09-08T03:47:57;98513.97;;;20.85;57.16
32456;BME280;18912;43.270;27.942;2023-09-08T03:50:22;98507.59;;;20.79;57.14
32456;BME280;18912;43.270;27.942;2023-09-08T03:52:48;98505.81;;;21.00;56.87
32456;BME280;18912;43.270;27.942;2023-09-08T03:55:14;98502.41;;;21.19;56.71
32456;BME280;18912;43.270;27.942;2023-09-08T03:57:39;98508.56;;;21.36;56.64
32456;BME280;18912;43.270;27.942;2023-09-08T04:00:05;98503.69;;;21.54;56.44
32456;BME280;18912;43.270;27.942;2023-09-08T04:02:32;98511.47;;;21.72;56.14
32456;BME280;18912;43.270;27.942;2023-09-08T04:04:58;98507.72;;;21.93;55.85
32456;BME280;18912;43.270;27.942;2023-09-08T04:07:24;98507.47;;;22.04;55.64
32456;BME280;18912;43.270;27.942;2023-09-08T04:09:49;98507.28;;;22.26;55.34
32456;BME280;18912;43.270;27.942;2023-09-08T04:12:14;98510.03;;;22.41;54.62
32456;BME280;18912;43.270;27.942;2023-09-08T04:14:41;98514.75;;;22.51;54.47
32456;BME280;18912;43.270;27.942;2023-09-08T04:17:06;98519.16;;;22.57;54.24
32456;BME280;18912;43.270;27.942;2023-09-08T04:19:31;98521.66;;;22.58;53.96
32456;BME280;18912;43.270;27.942;2023-09-08T04:21:57;98527.16;;;22.78;54.05
32456;BME280;18912;43.270;27.942;2023-09-08T04:24:22;98518.91;;;22.98;53.18
32456;BME280;18912;43.270;27.942;2023-09-08T04:26:48;98530.97;;;23.17;52.89
32456;BME280;18912;43.270;27.942;2023-09-08T04:29:13;98527.41;;;23.17;53.16
32456;BME280;18912;43.270;27.942;2023-09-08T04:31:39;98531.84;;;23.23;53.43
32456;BME280;18912;43.270;27.942;2023-09-08T04:34:04;98528.53;;;23.36;52.84
32456;BME280;18912;43.270;27.942;2023-09-08T04:36:29;98530.13;;;23.57;52.43
32456;BME280;18912;43.270;27.942;2023-09-08T04:38:56;98529.84;;;23.49;51.85
32456;BME280;18912;43.270;27.942;2023-09-08T04:41:21;98534.03;;;23.36;51.70
32456;BME280;18912;43.270;27.942;2023-09-08T04:43:47;98528.78;;;23.35;51.73
32456;BME280;18912;43.270;27.942;2023-09-08T04:46:12;98542.31;;;23.31;51.96
32456;BME280;18912;43.270;27.942;2023-09-08T04:48:38;98542.84;;;23.33;52.18
32456;BME280;18912;43.270;27.942;2023-09-08T04:51:03;98543.66;;;23.39;52.35
32456;BME280;18912;43.270;27.942;2023-09-08T04:53:29;98540.06;;;23.48;52.77
32456;BME280;18912;43.270;27.942;2023-09-08T04:55:54;98546.66;;;23.62;52.25
32456;BME280;18912;43.270;27.942;2023-09-08T04:58:20;98544.41;;;23.69;51.94
32456;BME280;18912;43.270;27.942;2023-09-08T05:00:45;98528.66;;;23.80;51.91
32456;BME280;18912;43.270;27.942;2023-09-08T05:03:11;98526.69;;;23.80;51.85
32456;BME280;18912;43.270;27.942;2023-09-08T05:05:36;98538.53;;;23.86;51.74
32456;BME280;18912;43.270;27.942;2023-09-08T05:08:02;98539.06;;;23.98;51.62
32456;BME280;18912;43.270;27.942;2023-09-08T05:10:27;98537.91;;;24.14;51.34
32456;BME280;18912;43.270;27.942;2023-09-08T05:12:53;98540.94;;;24.18;51.29
32456;BME280;18912;43.270;27.942;2023-09-08T05:15:18;98546.41;;;24.28;50.99
32456;BME280;18912;43.270;27.942;2023-09-08T05:17:46;98548.28;;;24.32;51.10
32456;BME280;18912;43.270;27.942;2023-09-08T05:20:12;98540.09;;;24.61;51.02
32456;BME280;18912;43.270;27.942;2023-09-08T05:22:37;98542.28;;;24.64;51.01
32456;BME280;18912;43.270;27.942;2023-09-08T05:25:03;98540.38;;;24.98;50.75
32456;BME280;18912;43.270;27.942;2023-09-08T05:27:29;98534.75;;;25.08;50.58
32456;BME280;18912;43.270;27.942;2023-09-08T05:29:55;98537.09;;;25.53;49.90
32456;BME280;18912;43.270;27.942;2023-09-08T05:32:20;98539.69;;;25.92;50.08
32456;BME280;18912;43.270;27.942;2023-09-08T05:34:46;98541.34;;;26.17;49.26
32456;BME280;18912;43.270;27.942;2023-09-08T05:37:11;98531.47;;;26.48;48.85
32456;BME280;18912;43.270;27.942;2023-09-08T05:39:37;98542.34;;;26.82;48.65
32456;BME280;18912;43.270;27.942;2023-09-08T05:42:02;98543.75;;;26.79;48.97
32456;BME280;18912;43.270;27.942;2023-09-08T05:44:28;98553.03;;;27.20;48.64
32456;BME280;18912;43.270;27.942;2023-09-08T05:46:53;98545.03;;;27.64;48.25
32456;BME280;18912;43.270;27.942;2023-09-08T05:49:19;98544.47;;;27.95;49.60
32456;BME280;18912;43.270;27.942;2023-09-08T05:51:44;98548.31;;;28.34;53.88
32456;BME280;18912;43.270;27.942;2023-09-08T05:54:10;98563.38;;;29.05;53.49
32456;BME280;18912;43.270;27.942;2023-09-08T05:56:37;98557.53;;;29.28;52.89
32456;BME280;18912;43.270;27.942;2023-09-08T05:59:02;98558.19;;;29.87;51.92
32456;BME280;18912;43.270;27.942;2023-09-08T06:01:29;98559.28;;;30.25;51.37
32456;BME280;18912;43.270;27.942;2023-09-08T06:03:54;98558.41;;;30.72;50.19
32456;BME280;18912;43.270;27.942;2023-09-08T06:06:20;98555.16;;;31.04;49.67
32456;BME280;18912;43.270;27.942;2023-09-08T06:08:47;98561.53;;;31.48;48.25
32456;BME280;18912;43.270;27.942;2023-09-08T06:11:12;98562.56;;;31.81;47.35
32456;BME280;18912;43.270;27.942;2023-09-08T06:13:38;98568.09;;;32.36;46.30
32456;BME280;18912;43.270;27.942;2023-09-08T06:16:03;98571.72;;;32.36;46.23
32456;BME280;18912;43.270;27.942;2023-09-08T06:18:29;98576.97;;;32.38;46.42
32456;BME280;18912;43.270;27.942;2023-09-08T06:20:59;98568.78;;;32.82;45.52
32456;BME280;18912;43.270;27.942;2023-09-08T06:23:24;98574.75;;;33.01;44.75
32456;BME280;18912;43.270;27.942;2023-09-08T06:25:50;98575.00;;;33.29;44.72
32456;BME280;18912;43.270;27.942;2023-09-08T06:28:16;98575.28;;;33.81;43.72
32456;BME280;18912;43.270;27.942;2023-09-08T06:30:41;98569.28;;;33.70;43.84
32456;BME280;18912;43.270;27.942;2023-09-08T06:33:07;98580.91;;;33.93;43.41
32456;BME280;18912;43.270;27.942;2023-09-08T06:35:33;98579.56;;;34.11;43.03
32456;BME280;18912;43.270;27.942;2023-09-08T06:37:59;98578.97;;;34.30;42.92
32456;BME280;18912;43.270;27.942;2023-09-08T06:40:25;98581.31;;;34.40;42.44
32456;BME280;18912;43.270;27.942;2023-09-08T06:42:51;98570.34;;;33.78;42.92
32456;BME280;18912;43.270;27.942;2023-09-08T06:45:16;98573.81;;;34.08;43.06
32456;BME280;18912;43.270;27.942;2023-09-08T06:47:43;98572.81;;;33.67;43.51
32456;BME280;18912;43.270;27.942;2023-09-08T06:50:09;98575.50;;;33.43;43.99
32456;BME280;18912;43.270;27.942;2023-09-08T06:52:35;98577.28;;;33.48;44.36
32456;BME280;18912;43.270;27.942;2023-09-08T06:55:01;98578.00;;;33.03;44.94
32456;BME280;18912;43.270;27.942;2023-09-08T06:57:26;98590.22;;;32.20;46.25
32456;BME280;18912;43.270;27.942;2023-09-08T06:59:52;98591.28;;;31.44;45.87
32456;BME280;18912;43.270;27.942;2023-09-08T07:02:17;98584.00;;;31.60;44.01
32456;BME280;18912;43.270;27.942;2023-09-08T07:04:43;98572.50;;;30.50;44.25
32456;BME280;18912;43.270;27.942;2023-09-08T07:07:08;98581.38;;;30.52;43.49
32456;BME280;18912;43.270;27.942;2023-09-08T07:09:35;98604.84;;;30.12;44.23
32456;BME280;18912;43.270;27.942;2023-09-08T07:12:02;98603.16;;;29.94;45.31
32456;BME280;18912;43.270;27.942;2023-09-08T07:14:27;98604.06;;;29.59;46.53
32456;BME280;18912;43.270;27.942;2023-09-08T07:16:53;98610.44;;;29.28;46.80
32456;BME280;18912;43.270;27.942;2023-09-08T07:19:18;98610.81;;;29.00;48.13
32456;BME280;18912;43.270;27.942;2023-09-08T07:21:44;98599.03;;;28.81;49.26
32456;BME280;18912;43.270;27.942;2023-09-08T07:24:09;98603.53;;;28.90;49.34
32456;BME280;18912;43.270;27.942;2023-09-08T07:26:35;98602.75;;;28.76;49.65
32456;BME280;18912;43.270;27.942;2023-09-08T07:29:00;98610.97;;;28.05;53.32
32456;BME280;18912;43.270;27.942;2023-09-08T07:31:26;98607.22;;;28.36;53.92
32456;BME280;18912;43.270;27.942;2023-09-08T07:33:51;98607.22;;;28.23;55.90
32456;BME280;18912;43.270;27.942;2023-09-08T07:36:17;98602.81;;;27.95;56.55
32456;BME280;18912;43.270;27.942;2023-09-08T07:38:42;98598.25;;;27.85;56.99
32456;BME280;18912;43.270;27.942;2023-09-08T07:41:08;98611.78;;;28.05;57.27
32456;BME280;18912;43.270;27.942;2023-09-08T07:43:33;98623.00;;;28.14;57.21
32456;BME280;18912;43.270;27.942;2023-09-08T07:45:59;98620.13;;;28.05;58.31
32456;BME280;18912;43.270;27.942;2023-09-08T07:48:24;98618.78;;;28.03;58.96
32456;BME280;18912;43.270;27.942;2023-09-08T07:50:50;98628.16;;;28.07;59.25
32456;BME280;18912;43.270;27.942;2023-09-08T07:53:15;98625.16;;;28.03;59.71
32456;BME280;18912;43.270;27.942;2023-09-08T07:55:41;98623.41;;;27.94;60.63
32456;BME280;18912;43.270;27.942;2023-09-08T07:58:07;98611.66;;;27.97;60.91
32456;BME280;18912;43.270;27.942;2023-09-08T08:00:33;98609.50;;;27.94;61.50
32456;BME280;18912;43.270;27.942;2023-09-08T08:02:59;98615.63;;;27.91;62.25
32456;BME280;18912;43.270;27.942;2023-09-08T08:05:25;98609.50;;;27.94;62.93
32456;BME280;18912;43.270;27.942;2023-09-08T08:07:51;98605.72;;;28.03;62.51
32456;BME280;18912;43.270;27.942;2023-09-08T08:10:17;98603.75;;;28.04;62.57
32456;BME280;18912;43.270;27.942;2023-09-08T08:12:43;98616.00;;;28.03;62.43
32456;BME280;18912;43.270;27.942;2023-09-08T08:15:10;98619.91;;;28.02;62.46
32456;BME280;18912;43.270;27.942;2023-09-08T08:17:36;98617.34;;;28.05;62.95
32456;BME280;18912;43.270;27.942;2023-09-08T08:20:03;98616.09;;;27.98;63.45
32456;BME280;18912;43.270;27.942;2023-09-08T08:22:33;98617.16;;;28.02;63.58
32456;BME280;18912;43.270;27.942;2023-09-08T08:24:58;98621.69;;;28.11;63.32
32456;BME280;18912;43.270;27.942;2023-09-08T08:27:24;98611.47;;;28.20;63.30
32456;BME280;18912;43.270;27.942;2023-09-08T08:29:50;98609.94;;;28.28;63.07
32456;BME280;18912;43.270;27.942;2023-09-08T08:32:16;98617.31;;;28.46;62.65
32456;BME280;18912;43.270;27.942;2023-09-08T08:34:42;98613.50;;;28.55;63.06
32456;BME280;18912;43.270;27.942;2023-09-08T08:37:07;98622.34;;;28.71;63.24
32456;BME280;18912;43.270;27.942;2023-09-08T08:39:33;98624.91;;;28.81;62.68
32456;BME280;18912;43.270;27.942;2023-09-08T08:42:06;98613.41;;;28.74;62.25
32456;BME280;18912;43.270;27.942;2023-09-08T08:44:31;98620.50;;;28.67;61.81
32456;BME280;18912;43.270;27.942;2023-09-08T08:46:58;98615.03;;;28.75;61.50
32456;BME280;18912;43.270;27.942;2023-09-08T08:49:25;98625.84;;;28.77;61.52
32456;BME280;18912;43.270;27.942;2023-09-08T08:51:53;98622.63;;;28.83;61.56
32456;BME280;18912;43.270;27.942;2023-09-08T08:54:19;98624.47;;;28.88;60.68
32456;BME280;18912;43.270;27.942;2023-09-08T08:56:45;98620.19;;;28.82;61.14
32456;BME280;18912;43.270;27.942;2023-09-08T08:59:12;98620.75;;;28.92;61.11
32456;BME280;18912;43.270;27.942;2023-09-08T09:01:39;98620.19;;;29.04;61.34
32456;BME280;18912;43.270;27.942;2023-09-08T09:04:07;98621.81;;;29.18;61.28
32456;BME280;18912;43.270;27.942;2023-09-08T09:06:33;98618.31;;;29.35;60.57
32456;BME280;18912;43.270;27.942;2023-09-08T09:08:59;98622.69;;;29.27;60.57
32456;BME280;18912;43.270;27.942;2023-09-08T09:11:25;98614.84;;;29.52;58.50
32456;BME280;18912;43.270;27.942;2023-09-08T09:13:51;98608.47;;;29.29;58.46
32456;BME280;18912;43.270;27.942;2023-09-08T09:16:16;98613.41;;;29.85;56.79
32456;BME280;18912;43.270;27.942;2023-09-08T09:19:08;98611.16;;;30.99;54.25
32456;BME280;18912;43.270;27.942;2023-09-08T09:21:45;98604.94;;;31.11;51.87
32456;BME280;18912;43.270;27.942;2023-09-08T09:24:31;98614.94;;;30.86;52.38
32456;BME280;18912;43.270;27.942;2023-09-08T09:27:02;98607.00;;;31.74;50.25
32456;BME280;18912;43.270;27.942;2023-09-08T09:29:31;98610.47;;;32.17;49.35
32456;BME280;18912;43.270;27.942;2023-09-08T09:32:02;98615.84;;;31.93;47.67
32456;BME280;18912;43.270;27.942;2023-09-08T09:34:28;98609.97;;;31.52;46.87
32456;BME280;18912;43.270;27.942;2023-09-08T09:36:53;98611.50;;;31.15;47.56
32456;BME280;18912;43.270;27.942;2023-09-08T09:39:24;98606.38;;;31.08;47.98
32456;BME280;18912;43.270;27.942;2023-09-08T09:41:54;98600.31;;;31.15;48.00
32456;BME280;18912;43.270;27.942;2023-09-08T09:44:21;98606.34;;;30.74;48.61
32456;BME280;18912;43.270;27.942;2023-09-08T09:46:46;98613.66;;;29.97;47.30
32456;BME280;18912;43.270;27.942;2023-09-08T09:49:13;98610.31;;;30.25;49.25
32456;BME280;18912;43.270;27.942;2023-09-08T09:51:49;98602.28;;;30.24;48.23
32456;BME280;18912;43.270;27.942;2023-09-08T09:54:18;98607.81;;;30.72;49.63
32456;BME280;18912;43.270;27.942;2023-09-08T09:56:44;98610.28;;;30.73;46.48
32456;BME280;18912;43.270;27.942;2023-09-08T09:59:11;98599.28;;;30.60;47.73
32456;BME280;18912;43.270;27.942;2023-09-08T10:01:38;98599.47;;;30.80;46.71
32456;BME280;18912;43.270;27.942;2023-09-08T10:04:05;98600.97;;;30.95;46.09
32456;BME280;18912;43.270;27.942;2023-09-08T10:06:34;98595.69;;;31.27;45.33
32456;BME280;18912;43.270;27.942;2023-09-08T10:09:00;98597.53;;;31.06;44.93
32456;BME280;18912;43.270;27.942;2023-09-08T10:11:35;98594.53;;;31.54;45.29
32456;BME280;18912;43.270;27.942;2023-09-08T10:14:04;98597.31;;;31.63;45.20
32456;BME280;18912;43.270;27.942;2023-09-08T10:16:35;98594.84;;;31.61;44.57
32456;BME280;18912;43.270;27.942;2023-09-08T10:19:02;98600.97;;;30.95;44.37
32456;BME280;18912;43.270;27.942;2023-09-08T10:21:32;98595.84;;;30.71;44.91
32456;BME280;18912;43.270;27.942;2023-09-08T10:24:10;98593.44;;;31.04;45.64
32456;BME280;18912;43.270;27.942;2023-09-08T10:26:40;98596.00;;;30.75;44.61
32456;BME280;18912;43.270;27.942;2023-09-08T10:29:09;98605.00;;;30.46;44.55
32456;BME280;18912;43.270;27.942;2023-09-08T10:31:35;98601.41;;;29.76;46.33
32456;BME280;18912;43.270;27.942;2023-09-08T10:34:01;98611.53;;;29.72;46.63
32456;BME280;18912;43.270;27.942;2023-09-08T10:36:28;98620.25;;;29.79;46.20
32456;BME280;18912;43.270;27.942;2023-09-08T10:38:53;98607.34;;;30.22;47.33
32456;BME280;18912;43.270;27.942;2023-09-08T10:44:07;98615.06;;;30.25;47.00
32456;BME280;18912;43.270;27.942;2023-09-08T10:46:32;98596.31;;;30.65;46.38
32456;BME280;18912;43.270;27.942;2023-09-08T10:49:06;98598.94;;;30.61;46.14
32456;BME280;18912;43.270;27.942;2023-09-08T10:51:33;98596.03;;;31.00;45.45
32456;BME280;18912;43.270;27.942;2023-09-08T10:54:00;98594.28;;;31.85;45.00
32456;BME280;18912;43.270;27.942;2023-09-08T10:56:48;98593.31;;;32.27;41.70
32456;BME280;18912;43.270;27.942;2023-09-08T10:59:18;98590.19;;;32.29;42.27
32456;BME280;18912;43.270;27.942;2023-09-08T11:01:44;98590.13;;;32.66;41.63
32456;BME280;18912;43.270;27.942;2023-09-08T11:04:09;98581.25;;;32.64;40.37
32456;BME280;18912;43.270;27.942;2023-09-08T11:06:38;98580.25;;;32.40;40.20
32456;BME280;18912;43.270;27.942;2023-09-08T11:09:07;98592.72;;;32.13;40.61
32456;BME280;18912;43.270;27.942;2023-09-08T11:11:33;98595.09;;;31.94;39.54
32456;BME280;18912;43.270;27.942;2023-09-08T11:13:59;98599.59;;;31.69;41.94
32456;BME280;18912;43.270;27.942;2023-09-08T11:16:24;98593.59;;;30.90;41.92
32456;BME280;18912;43.270;27.942;2023-09-08T11:18:54;98603.31;;;30.36;43.97
32456;BME280;18912;43.270;27.942;2023-09-08T11:21:20;98606.31;;;30.57;43.67
32456;BME280;18912;43.270;27.942;2023-09-08T11:23:46;98603.78;;;30.86;43.38
32456;BME280;18912;43.270;27.942;2023-09-08T11:26:12;98599.47;;;30.80;43.70
32456;BME280;18912;43.270;27.942;2023-09-08T11:28:37;98604.88;;;30.77;44.05
32456;BME280;18912;43.270;27.942;2023-09-08T11:31:03;98596.84;;;30.75;44.27
32456;BME280;18912;43.270;27.942;2023-09-08T11:33:33;98580.34;;;30.39;44.22
32456;BME280;18912;43.270;27.942;2023-09-08T11:35:59;98581.41;;;30.69;43.77
32456;BME280;18912;43.270;27.942;2023-09-08T11:38:25;98576.72;;;30.30;43.95
32456;BME280;18912;43.270;27.942;2023-09-08T11:40:53;98585.19;;;30.17;43.86
32456;BME280;18912;43.270;27.942;2023-09-08T11:43:19;98580.47;;;29.87;44.49
32456;BME280;18912;43.270;27.942;2023-09-08T11:45:45;98583.25;;;29.78;45.62
32456;BME280;18912;43.270;27.942;2023-09-08T11:48:10;98580.44;;;30.17;45.12
32456;BME280;18912;43.270;27.942;2023-09-08T11:50:36;98573.66;;;30.01;44.53
32456;BME280;18912;43.270;27.942;2023-09-08T11:53:01;98580.16;;;29.88;44.72
32456;BME280;18912;43.270;27.942;2023-09-08T11:55:28;98581.97;;;29.93;45.07
32456;BME280;18912;43.270;27.942;2023-09-08T11:57:55;98575.22;;;29.77;44.45
32456;BME280;18912;43.270;27.942;2023-09-08T12:00:26;98579.16;;;29.54;45.09
32456;BME280;18912;43.270;27.942;2023-09-08T12:02:52;98578.84;;;29.33;44.63
32456;BME280;18912;43.270;27.942;2023-09-08T12:05:22;98578.53;;;29.34;44.94
32456;BME280;18912;43.270;27.942;2023-09-08T12:07:50;98574.78;;;29.39;45.63
32456;BME280;18912;43.270;27.942;2023-09-08T12:10:16;98573.41;;;29.50;45.75
32456;BME280;18912;43.270;27.942;2023-09-08T12:15:10;98574.00;;;29.03;46.69
32456;BME280;18912;43.270;27.942;2023-09-08T12:17:49;98573.75;;;29.35;47.34
32456;BME280;18912;43.270;27.942;2023-09-08T12:20:15;98564.22;;;29.49;46.98
32456;BME280;18912;43.270;27.942;2023-09-08T12:22:48;98566.75;;;29.99;46.37
32456;BME280;18912;43.270;27.942;2023-09-08T12:25:15;98553.94;;;29.98;43.74
32456;BME280;18912;43.270;27.942;2023-09-08T12:27:42;98560.13;;;29.86;45.67
32456;BME280;18912;43.270;27.942;2023-09-08T12:30:07;98560.78;;;29.75;45.37
32456;BME280;18912;43.270;27.942;2023-09-08T12:32:34;98566.41;;;29.92;44.79
32456;BME280;18912;43.270;27.942;2023-09-08T12:35:02;98570.19;;;29.96;45.55
32456;BME280;18912;43.270;27.942;2023-09-08T12:37:28;98570.19;;;29.65;44.49
32456;BME280;18912;43.270;27.942;2023-09-08T12:39:57;98561.44;;;29.27;45.24
32456;BME280;18912;43.270;27.942;2023-09-08T12:42:23;98562.03;;;29.46;45.83
32456;BME280;18912;43.270;27.942;2023-09-08T12:44:54;98557.63;;;30.15;45.40
32456;BME280;18912;43.270;27.942;2023-09-08T12:47:19;98551.50;;;30.35;44.69
32456;BME280;18912;43.270;27.942;2023-09-08T12:49:44;98535.25;;;30.55;43.19
32456;BME280;18912;43.270;27.942;2023-09-08T12:52:10;98544.63;;;30.50;42.00
32456;BME280;18912;43.270;27.942;2023-09-08T12:54:36;98548.88;;;30.48;42.13
32456;BME280;18912;43.270;27.942;2023-09-08T12:57:02;98547.22;;;30.55;42.92